Springside, United Kingdom
Current Conditions -  °F | °C
As of 3:50 PM on Thursday 30 Oct 2014 (Local Time) from EGPK Reporting Station
Drizzle Drizzle  
Wind Chill: 15°   Ceiling: 1700
Heat Index: 15°   Visibility: 6mi
Dew Point: 13°   Wind: 8mph
Humidity: 88%   Direction: 180°S
Pressure: 29.85"   Gusts: NA
Location:  55.62°N, 4.6°W
Report Text: EGPK 301550Z 18007KT 9999 -DZ SCT008 BKN017 15/13 Q1011
Loading
Personal Weather Stations






























Interactive Weather Map
Tropical Storm Tracking
New forecast layout! Learn more

10-Day Weather Forecast

Advertisements
Track Severe Weather on mobile